sensor_id;sensor_type;location;lat;lon;timestamp;pressure;altitude;pressure_sealevel;temperature;humidity
26839;BME280;40088;51.214;6.786;2023-11-21T00:05:19;100739.34;;;16.04;62.13
26839;BME280;40088;51.214;6.786;2023-11-21T00:15:19;100739.34;;;16.04;62.05
26839;BME280;40088;51.214;6.786;2023-11-21T00:25:20;100763.25;;;16.04;62.19
26839;BME280;40088;51.214;6.786;2023-11-21T00:35:20;100764.94;;;16.05;61.97
26839;BME280;40088;51.214;6.786;2023-11-21T00:45:21;100759.44;;;16.05;61.99
26839;BME280;40088;51.214;6.786;2023-11-21T00:55:21;100773.19;;;16.05;62.12
26839;BME280;40088;51.214;6.786;2023-11-21T01:05:22;100771.47;;;16.04;62.00
26839;BME280;40088;51.214;6.786;2023-11-21T01:15:22;100770.63;;;16.03;62.04
26839;BME280;40088;51.214;6.786;2023-11-21T01:25:22;100787.97;;;16.04;61.93
26839;BME280;40088;51.214;6.786;2023-11-21T01:35:23;100792.63;;;16.03;61.92
26839;BME280;40088;51.214;6.786;2023-11-21T01:45:23;100811.88;;;16.03;61.84
26839;BME280;40088;51.214;6.786;2023-11-21T01:55:25;100811.88;;;16.03;61.83
26839;BME280;40088;51.214;6.786;2023-11-21T02:05:27;100811.00;;;16.03;62.06
26839;BME280;40088;51.214;6.786;2023-11-21T02:15:27;100817.34;;;16.03;61.87
26839;BME280;40088;51.214;6.786;2023-11-21T02:25:31;100823.91;;;16.02;61.75
26839;BME280;40088;51.214;6.786;2023-11-21T02:35:31;100840.41;;;16.02;61.76
26839;BME280;40088;51.214;6.786;2023-11-21T02:45:32;100834.91;;;16.02;61.70
26839;BME280;40088;51.214;6.786;2023-11-21T02:55:32;100833.00;;;16.03;61.63
26839;BME280;40088;51.214;6.786;2023-11-21T03:05:35;100854.13;;;16.02;61.86
26839;BME280;40088;51.214;6.786;2023-11-21T03:15:37;100846.75;;;16.03;61.81
26839;BME280;40088;51.214;6.786;2023-11-21T03:25:37;100858.75;;;16.02;61.75
26839;BME280;40088;51.214;6.786;2023-11-21T03:35:38;100869.94;;;16.00;61.63
26839;BME280;40088;51.214;6.786;2023-11-21T03:45:38;100889.88;;;16.02;61.60
26839;BME280;40088;51.214;6.786;2023-11-21T03:55:40;100900.88;;;16.02;61.61
26839;BME280;40088;51.214;6.786;2023-11-21T04:05:41;100907.38;;;16.01;61.79
26839;BME280;40088;51.214;6.786;2023-11-21T04:15:41;100909.28;;;16.01;61.80
26839;BME280;40088;51.214;6.786;2023-11-21T04:25:41;100910.97;;;16.02;61.63
26839;BME280;40088;51.214;6.786;2023-11-21T04:35:42;100917.53;;;16.01;61.61
26839;BME280;40088;51.214;6.786;2023-11-21T04:45:42;100912.88;;;16.01;61.69
26839;BME280;40088;51.214;6.786;2023-11-21T04:55:43;100929.38;;;16.01;61.62
26839;BME280;40088;51.214;6.786;2023-11-21T05:05:44;100937.59;;;16.01;61.83
26839;BME280;40088;51.214;6.786;2023-11-21T05:15:44;100950.34;;;16.02;61.74
26839;BME280;40088;51.214;6.786;2023-11-21T05:25:45;100964.09;;;16.02;61.78
26839;BME280;40088;51.214;6.786;2023-11-21T05:35:46;100972.31;;;16.02;61.70
26839;BME280;40088;51.214;6.786;2023-11-21T05:45:48;100982.44;;;16.02;61.72
26839;BME280;40088;51.214;6.786;2023-11-21T05:55:48;101001.69;;;16.02;61.56
26839;BME280;40088;51.214;6.786;2023-11-21T06:05:49;101009.94;;;16.02;61.61
26839;BME280;40088;51.214;6.786;2023-11-21T06:15:49;101020.91;;;16.02;61.74
26839;BME280;40088;51.214;6.786;2023-11-21T06:25:50;101041.03;;;16.02;61.76
26839;BME280;40088;51.214;6.786;2023-11-21T06:35:51;101046.53;;;16.02;61.60
26839;BME280;40088;51.214;6.786;2023-11-21T06:45:51;101061.13;;;16.03;61.79
26839;BME280;40088;51.214;6.786;2023-11-21T06:55:51;101075.91;;;16.02;61.71
26839;BME280;40088;51.214;6.786;2023-11-21T07:05:52;101093.28;;;16.02;61.70
26839;BME280;40088;51.214;6.786;2023-11-21T07:15:52;101110.78;;;16.01;61.53
26839;BME280;40088;51.214;6.786;2023-11-21T07:25:52;101133.63;;;16.02;61.44
26839;BME280;40088;51.214;6.786;2023-11-21T07:35:53;101129.16;;;16.01;61.54
26839;BME280;40088;51.214;6.786;2023-11-21T07:45:53;101130.00;;;16.01;61.39
26839;BME280;40088;51.214;6.786;2023-11-21T07:55:53;101140.16;;;16.01;61.77
26839;BME280;40088;51.214;6.786;2023-11-21T08:05:53;101163.84;;;16.02;61.58
26839;BME280;40088;51.214;6.786;2023-11-21T08:15:55;101185.84;;;16.02;61.59
26839;BME280;40088;51.214;6.786;2023-11-21T08:25:56;101195.97;;;16.01;61.30
26839;BME280;40088;51.214;6.786;2023-11-21T08:35:56;101212.47;;;16.01;61.39
26839;BME280;40088;51.214;6.786;2023-11-21T08:45:57;101231.72;;;16.01;61.14
26839;BME280;40088;51.214;6.786;2023-11-21T08:55:57;101238.06;;;16.02;61.50
26839;BME280;40088;51.214;6.786;2023-11-21T09:05:58;101247.34;;;16.01;61.32
26839;BME280;40088;51.214;6.786;2023-11-21T09:16:00;101261.09;;;16.01;61.55
26839;BME280;40088;51.214;6.786;2023-11-21T09:26:00;101272.94;;;16.01;61.62
26839;BME280;40088;51.214;6.786;2023-11-21T09:36:01;101278.44;;;16.01;61.48
26839;BME280;40088;51.214;6.786;2023-11-21T09:46:01;101294.94;;;16.01;61.45
26839;BME280;40088;51.214;6.786;2023-11-21T09:56:02;101294.09;;;16.01;61.36
26839;BME280;40088;51.214;6.786;2023-11-21T10:06:03;101304.03;;;16.02;61.35
26839;BME280;40088;51.214;6.786;2023-11-21T10:16:07;101311.44;;;16.01;61.52
26839;BME280;40088;51.214;6.786;2023-11-21T10:26:12;101309.72;;;16.00;61.69
26839;BME280;40088;51.214;6.786;2023-11-21T10:36:26;101309.72;;;16.00;61.54
26839;BME280;40088;51.214;6.786;2023-11-21T10:46:27;101314.19;;;16.01;61.63
26839;BME280;40088;51.214;6.786;2023-11-21T10:56:28;101332.56;;;16.01;61.60
26839;BME280;40088;51.214;6.786;2023-11-21T11:06:31;101333.44;;;16.01;61.64
26839;BME280;40088;51.214;6.786;2023-11-21T11:16:33;101346.16;;;16.02;61.54
26839;BME280;40088;51.214;6.786;2023-11-21T11:26:44;101349.06;;;16.01;61.52
26839;BME280;40088;51.214;6.786;2023-11-21T11:36:49;101361.78;;;16.02;61.46
26839;BME280;40088;51.214;6.786;2023-11-21T11:46:52;101366.41;;;16.01;61.52
26839;BME280;40088;51.214;6.786;2023-11-21T11:56:53;101356.28;;;16.02;61.64
26839;BME280;40088;51.214;6.786;2023-11-21T12:06:54;101362.66;;;16.02;61.42
26839;BME280;40088;51.214;6.786;2023-11-21T12:16:56;101374.50;;;16.03;61.44
26839;BME280;40088;51.214;6.786;2023-11-21T12:26:56;101389.09;;;16.03;61.55
26839;BME280;40088;51.214;6.786;2023-11-21T12:36:57;101387.41;;;16.02;61.42
26839;BME280;40088;51.214;6.786;2023-11-21T12:46:57;101397.34;;;16.03;61.39
26839;BME280;40088;51.214;6.786;2023-11-21T12:56:59;101406.63;;;16.02;61.45
26839;BME280;40088;51.214;6.786;2023-11-21T13:07:05;101407.50;;;16.03;61.57
26839;BME280;40088;51.214;6.786;2023-11-21T13:17:13;101417.63;;;16.02;61.55
26839;BME280;40088;51.214;6.786;2023-11-21T13:27:13;101438.59;;;16.03;61.54
26839;BME280;40088;51.214;6.786;2023-11-21T13:37:15;101437.72;;;16.03;61.66
26839;BME280;40088;51.214;6.786;2023-11-21T13:47:15;101438.59;;;16.03;61.46
26839;BME280;40088;51.214;6.786;2023-11-21T13:57:16;101447.69;;;16.04;61.50
26839;BME280;40088;51.214;6.786;2023-11-21T14:07:16;101464.19;;;16.04;61.73
26839;BME280;40088;51.214;6.786;2023-11-21T14:17:31;101482.41;;;16.05;61.47
26839;BME280;40088;51.214;6.786;2023-11-21T14:27:32;101477.06;;;16.03;61.73
26839;BME280;40088;51.214;6.786;2023-11-21T14:37:34;101490.63;;;16.05;61.70
26839;BME280;40088;51.214;6.786;2023-11-21T14:47:35;101509.88;;;16.05;61.67
26839;BME280;40088;51.214;6.786;2023-11-21T14:57:38;101524.66;;;16.04;61.78
26839;BME280;40088;51.214;6.786;2023-11-21T15:07:39;101543.72;;;16.05;61.90
26839;BME280;40088;51.214;6.786;2023-11-21T15:17:39;101556.63;;;16.05;61.77
26839;BME280;40088;51.214;6.786;2023-11-21T15:27:42;101572.06;;;16.06;61.81
26839;BME280;40088;51.214;6.786;2023-11-21T15:37:43;101586.00;;;16.04;61.93
26839;BME280;40088;51.214;6.786;2023-11-21T15:47:45;101587.72;;;16.05;62.06
26839;BME280;40088;51.214;6.786;2023-11-21T15:57:45;101605.25;;;16.04;61.72
26839;BME280;40088;51.214;6.786;2023-11-21T16:07:45;101625.34;;;16.05;61.80
26839;BME280;40088;51.214;6.786;2023-11-21T16:17:46;101638.25;;;16.04;61.87
26839;BME280;40088;51.214;6.786;2023-11-21T16:27:46;101657.31;;;16.06;61.85
26839;BME280;40088;51.214;6.786;2023-11-21T16:37:46;101672.94;;;16.05;61.80
26839;BME280;40088;51.214;6.786;2023-11-21T16:47:48;101706.78;;;16.06;61.74
26839;BME280;40088;51.214;6.786;2023-11-21T16:57:49;101722.44;;;16.05;61.88
26839;BME280;40088;51.214;6.786;2023-11-21T17:07:51;101752.66;;;16.05;61.73
26839;BME280;40088;51.214;6.786;2023-11-21T17:17:52;101769.16;;;16.05;61.65
26839;BME280;40088;51.214;6.786;2023-11-21T17:27:55;101794.94;;;16.04;61.53
26839;BME280;40088;51.214;6.786;2023-11-21T17:37:56;101833.44;;;16.04;61.67
26839;BME280;40088;51.214;6.786;2023-11-21T17:47:56;101839.78;;;16.05;61.27
26839;BME280;40088;51.214;6.786;2023-11-21T17:57:56;101860.06;;;16.04;61.28
26839;BME280;40088;51.214;6.786;2023-11-21T18:07:59;101876.56;;;16.04;61.03
26839;BME280;40088;51.214;6.786;2023-11-21T18:18:00;101894.09;;;16.03;61.05
26839;BME280;40088;51.214;6.786;2023-11-21T18:28:00;101931.56;;;16.04;60.80
26839;BME280;40088;51.214;6.786;2023-11-21T18:38:00;101941.69;;;16.03;60.78
26839;BME280;40088;51.214;6.786;2023-11-21T18:48:01;101938.09;;;16.03;60.56
26839;BME280;40088;51.214;6.786;2023-11-21T18:58:01;101956.47;;;16.02;60.54
26839;BME280;40088;51.214;6.786;2023-11-21T19:08:01;101974.81;;;16.02;60.25
26839;BME280;40088;51.214;6.786;2023-11-21T19:18:02;101993.22;;;16.01;60.32
26839;BME280;40088;51.214;6.786;2023-11-21T19:28:03;101998.72;;;16.01;60.08
26839;BME280;40088;51.214;6.786;2023-11-21T19:38:07;102015.19;;;16.01;59.95
26839;BME280;40088;51.214;6.786;2023-11-21T19:48:09;102015.19;;;16.01;59.96
26839;BME280;40088;51.214;6.786;2023-11-21T19:58:09;102032.72;;;16.00;59.93
26839;BME280;40088;51.214;6.786;2023-11-21T20:08:11;102047.34;;;16.01;59.87
26839;BME280;40088;51.214;6.786;2023-11-21T20:18:11;102073.97;;;16.00;59.75
26839;BME280;40088;51.214;6.786;2023-11-21T20:28:11;102090.47;;;16.00;59.73
26839;BME280;40088;51.214;6.786;2023-11-21T20:38:13;102101.47;;;16.00;59.64
26839;BME280;40088;51.214;6.786;2023-11-21T20:48:14;102117.09;;;16.00;59.73
26839;BME280;40088;51.214;6.786;2023-11-21T20:58:16;102138.06;;;16.01;59.46
26839;BME280;40088;51.214;6.786;2023-11-21T21:08:16;102137.19;;;16.00;59.17
26839;BME280;40088;51.214;6.786;2023-11-21T21:18:16;102139.09;;;16.00;59.38
26839;BME280;40088;51.214;6.786;2023-11-21T21:28:16;102149.22;;;15.99;59.17
26839;BME280;40088;51.214;6.786;2023-11-21T21:38:18;102151.97;;;15.99;59.20
26839;BME280;40088;51.214;6.786;2023-11-21T21:48:18;102171.22;;;15.99;59.20
26839;BME280;40088;51.214;6.786;2023-11-21T21:58:18;102192.34;;;15.99;59.56
26839;BME280;40088;51.214;6.786;2023-11-21T22:08:19;102205.25;;;15.98;59.09
26839;BME280;40088;51.214;6.786;2023-11-21T22:18:19;102215.22;;;15.99;59.06
26839;BME280;40088;51.214;6.786;2023-11-21T22:28:19;102234.47;;;15.99;59.07
26839;BME280;40088;51.214;6.786;2023-11-21T22:38:20;102234.47;;;15.99;58.82
26839;BME280;40088;51.214;6.786;2023-11-21T22:48:20;102237.22;;;15.99;59.03
26839;BME280;40088;51.214;6.786;2023-11-21T22:58:20;102262.81;;;16.00;58.83
26839;BME280;40088;51.214;6.786;2023-11-21T23:08:21;102271.22;;;15.98;58.83
26839;BME280;40088;51.214;6.786;2023-11-21T23:18:21;102287.84;;;15.97;58.66
26839;BME280;40088;51.214;6.786;2023-11-21T23:28:27;102296.81;;;15.99;58.65
26839;BME280;40088;51.214;6.786;2023-11-21T23:38:28;102291.50;;;15.97;58.50
26839;BME280;40088;51.214;6.786;2023-11-21T23:48:29;102300.59;;;15.98;58.60
26839;BME280;40088;51.214;6.786;2023-11-21T23:58:29;102296.09;;;15.97;58.43
